Time;durP1;ratioP1;P1;durP2;ratioP2;P2;SDS_P1;SDS_P2;PMS_P1;PMS_P2;Temp;Humidity;BMP_temperature;BMP_pressure;BME280_temperature;BME280_humidity;BME280_pressure;Samples;Min_cycle;Max_cycle;Signal;HPM_P1;HPM_P2
2023/12/24 00:00:55;;;;;;;1.47;0.83;;;9.70;99.90;;;;;;5076894;28;20709;-43
2023/12/24 00:03:21;;;;;;;1.67;0.87;;;9.70;99.90;;;;;;5076898;28;20172;-43
2023/12/24 00:05:46;;;;;;;1.10;0.73;;;9.70;99.90;;;;;;5058882;28;20186;-43
2023/12/24 00:08:18;;;;;;;2.93;0.93;;;9.70;99.90;;;;;;5076984;28;20277;-42
2023/12/24 00:10:44;;;;;;;1.43;0.80;;;9.70;99.90;;;;;;5076941;28;20283;-43
2023/12/24 00:13:21;;;;;;;2.27;0.77;;;9.70;99.90;;;;;;5076900;28;20614;-44
2023/12/24 00:15:47;;;;;;;2.30;0.80;;;9.70;99.90;;;;;;5076165;28;20190;-43
2023/12/24 00:18:12;;;;;;;2.40;0.87;;;9.70;99.90;;;;;;5076540;28;20168;-43
2023/12/24 00:20:41;;;;;;;3.67;0.90;;;9.70;99.90;;;;;;5076180;28;20233;-43
2023/12/24 00:23:19;;;;;;;2.80;0.77;;;9.60;99.90;;;;;;5076106;28;20225;-45
2023/12/24 00:25:46;;;;;;;1.20;0.73;;;9.60;99.90;;;;;;5076402;28;20228;-43
2023/12/24 00:28:12;;;;;;;1.77;0.90;;;9.60;99.90;;;;;;5076222;28;20661;-43
2023/12/24 00:30:37;;;;;;;0.80;0.60;;;9.60;99.90;;;;;;5058106;28;20215;-44
2023/12/24 00:33:03;;;;;;;6.93;0.93;;;9.50;99.90;;;;;;5076184;28;20179;-44
2023/12/24 00:35:33;;;;;;;1.50;0.70;;;9.50;99.90;;;;;;5076644;28;20539;-43
2023/12/24 00:41:26;;;;;;;2.03;0.80;;;9.50;99.90;;;;;;5075805;28;20630;-41
2023/12/24 00:43:52;;;;;;;3.50;0.53;;;9.60;99.90;;;;;;5075689;28;20234;-43
2023/12/24 00:46:18;;;;;;;1.33;0.60;;;9.50;99.90;;;;;;5076561;28;20257;-43
2023/12/24 00:48:43;;;;;;;3.23;0.77;;;9.60;99.90;;;;;;5075590;28;20234;-42
2023/12/24 00:51:09;;;;;;;0.50;0.50;;;9.60;99.90;;;;;;5075620;28;20188;-43
2023/12/24 00:53:36;;;;;;;0.90;0.70;;;9.60;99.90;;;;;;5075525;28;20173;-43
2023/12/24 00:56:02;;;;;;;3.50;0.90;;;9.70;99.90;;;;;;5075769;28;20253;-41
2023/12/24 00:58:28;;;;;;;4.37;1.20;;;9.60;99.90;;;;;;5074722;28;20233;-43
2023/12/24 01:00:53;;;;;;;0.60;0.53;;;9.70;99.90;;;;;;5075419;28;20193;-44
2023/12/24 01:03:20;;;;;;;2.47;0.70;;;9.60;99.90;;;;;;5041092;28;20541;-43
2023/12/24 01:05:45;;;;;;;2.40;0.80;;;9.60;99.90;;;;;;5075415;28;20172;-43
2023/12/24 01:08:14;;;;;;;2.53;0.83;;;9.60;99.90;;;;;;5075394;28;20186;-42
2023/12/24 01:10:40;;;;;;;4.77;0.80;;;9.50;99.90;;;;;;5075509;28;20246;-42
2023/12/24 01:13:11;;;;;;;3.47;1.00;;;9.50;99.90;;;;;;5057723;28;20604;-41
2023/12/24 01:15:37;;;;;;;0.90;0.70;;;9.50;99.90;;;;;;5057446;28;20191;-43
2023/12/24 01:18:03;;;;;;;1.30;0.50;;;9.50;99.90;;;;;;5081320;28;20235;-43
2023/12/24 01:20:32;;;;;;;2.87;0.60;;;9.40;99.90;;;;;;5071668;28;20200;-44
2023/12/24 01:23:00;;;;;;;1.40;0.40;;;9.50;99.90;;;;;;5089491;28;20172;-45
2023/12/24 01:25:29;;;;;;;0.87;0.70;;;9.50;99.90;;;;;;5068747;28;20190;-42
2023/12/24 01:27:57;;;;;;;0.47;0.47;;;9.50;99.90;;;;;;5076716;28;20203;-44
2023/12/24 01:30:23;;;;;;;3.47;1.10;;;9.50;99.90;;;;;;5064605;28;20236;-42
2023/12/24 01:32:48;;;;;;;2.37;0.80;;;9.50;99.90;;;;;;5057791;28;20517;-44
2023/12/24 01:35:15;;;;;;;1.30;0.57;;;9.50;99.90;;;;;;5075875;28;20548;-44
2023/12/24 01:37:41;;;;;;;1.17;0.60;;;9.50;99.90;;;;;;5075245;28;20185;-43
2023/12/24 01:40:10;;;;;;;1.63;0.60;;;9.50;99.90;;;;;;5075320;28;20198;-43
2023/12/24 01:42:35;;;;;;;2.00;0.97;;;9.60;99.90;;;;;;5075358;28;20188;-42
2023/12/24 01:45:01;;;;;;;2.10;0.90;;;9.60;99.90;;;;;;5075194;28;20184;-43
2023/12/24 01:47:27;;;;;;;3.20;0.70;;;9.50;99.90;;;;;;5076178;28;20163;-43
2023/12/24 01:49:52;;;;;;;0.40;0.40;;;9.60;99.90;;;;;;5074872;28;20216;-44
2023/12/24 01:52:19;;;;;;;1.27;0.77;;;9.60;99.90;;;;;;5074997;28;20181;-44
2023/12/24 01:54:50;;;;;;;1.83;0.63;;;9.50;99.90;;;;;;5057141;28;20190;-44
2023/12/24 01:57:17;;;;;;;1.43;0.67;;;9.60;99.90;;;;;;5078752;28;20171;-43
2023/12/24 01:59:43;;;;;;;0.60;0.60;;;9.50;99.90;;;;;;5083637;28;20213;-43
2023/12/24 02:02:13;;;;;;;2.63;0.73;;;9.50;99.90;;;;;;5084381;28;20180;-44
2023/12/24 02:04:39;;;;;;;0.40;0.40;;;9.50;99.90;;;;;;5049317;28;20558;-43
2023/12/24 02:07:05;;;;;;;0.50;0.50;;;9.50;99.90;;;;;;5083843;28;20212;-44
2023/12/24 02:09:43;;;;;;;1.37;0.70;;;9.50;99.90;;;;;;5075211;28;20298;-43
2023/12/24 02:12:11;;;;;;;0.80;0.67;;;9.40;99.90;;;;;;5074929;28;20167;-42
2023/12/24 02:14:37;;;;;;;1.53;0.60;;;9.40;99.90;;;;;;5073942;28;20559;-45
2023/12/24 02:17:07;;;;;;;2.17;0.60;;;9.40;99.90;;;;;;5074116;28;20176;-41
2023/12/24 02:19:36;;;;;;;0.40;0.40;;;9.40;99.90;;;;;;5074082;28;20207;-44
2023/12/24 02:22:04;;;;;;;2.20;0.97;;;9.30;99.90;;;;;;5074457;28;20320;-44
2023/12/24 02:24:32;;;;;;;1.43;0.80;;;9.40;99.90;;;;;;5074536;28;20313;-42
2023/12/24 02:27:37;;;;;;;1.77;0.80;;;9.40;99.90;;;;;;5074344;28;20574;-44
2023/12/24 02:30:18;;;;;;;1.33;0.60;;;9.30;99.90;;;;;;5044388;28;20221;-45
2023/12/24 02:32:47;;;;;;;0.90;0.67;;;9.30;99.90;;;;;;5074076;28;20172;-43
2023/12/24 02:35:14;;;;;;;1.07;0.60;;;9.40;99.90;;;;;;5055558;28;20277;-44
2023/12/24 02:37:39;;;;;;;0.50;0.50;;;9.30;99.90;;;;;;5073558;28;20192;-44
2023/12/24 02:40:06;;;;;;;0.50;0.50;;;9.30;99.90;;;;;;5073559;28;20204;-43
2023/12/24 02:42:32;;;;;;;1.90;0.50;;;9.30;99.90;;;;;;5056031;28;20222;-44
2023/12/24 02:44:58;;;;;;;1.43;0.50;;;9.30;99.90;;;;;;5073689;28;20636;-43
2023/12/24 02:47:24;;;;;;;1.30;0.60;;;9.30;99.90;;;;;;5073565;28;20186;-43
2023/12/24 02:49:49;;;;;;;0.80;0.80;;;9.40;99.90;;;;;;5055664;28;20310;-44
2023/12/24 02:52:15;;;;;;;0.80;0.80;;;9.40;99.90;;;;;;5073711;28;20187;-44
2023/12/24 02:54:41;;;;;;;0.47;0.47;;;9.40;99.90;;;;;;5073876;28;20182;-44
2023/12/24 02:57:06;;;;;;;1.17;0.70;;;9.30;99.90;;;;;;5074266;28;20645;-43
2023/12/24 02:59:38;;;;;;;0.43;0.43;;;9.40;99.90;;;;;;5074154;28;20269;-44
2023/12/24 03:02:04;;;;;;;0.80;0.80;;;9.40;99.90;;;;;;5075819;28;20232;-44
2023/12/24 03:04:30;;;;;;;0.40;0.40;;;9.40;99.90;;;;;;5074570;28;20187;-44
2023/12/24 03:10:17;;;;;;;0.73;0.73;;;9.40;99.90;;;;;;5073217;28;20321;-45
2023/12/24 03:12:43;;;;;;;0.60;0.60;;;9.40;99.90;;;;;;5073253;28;20199;-42
2023/12/24 03:15:10;;;;;;;0.90;0.90;;;9.40;99.90;;;;;;5073295;28;20185;-42
2023/12/24 03:17:36;;;;;;;0.70;0.70;;;9.50;99.90;;;;;;5073293;28;20207;-43
2023/12/24 03:20:06;;;;;;;1.20;0.83;;;9.40;99.90;;;;;;5055526;28;20242;-43
2023/12/24 03:22:32;;;;;;;1.10;1.00;;;9.40;99.90;;;;;;5076905;28;20172;-44
2023/12/24 03:24:59;;;;;;;0.73;0.73;;;9.40;99.90;;;;;;5077635;28;20252;-42
2023/12/24 03:27:25;;;;;;;2.87;0.90;;;9.50;99.90;;;;;;5077571;28;20176;-44
2023/12/24 03:29:53;;;;;;;4.27;1.50;;;9.50;99.90;;;;;;5077134;28;20614;-42
2023/12/24 03:32:18;;;;;;;1.07;1.03;;;9.50;99.90;;;;;;5077399;28;20207;-43
2023/12/24 03:34:53;;;;;;;1.20;1.10;;;9.50;99.90;;;;;;5077709;28;20218;-42
2023/12/24 03:37:25;;;;;;;1.10;0.83;;;9.50;99.90;;;;;;5077425;28;20592;-43
2023/12/24 03:39:51;;;;;;;1.17;0.90;;;9.50;99.90;;;;;;5077247;28;20332;-44
2023/12/24 03:42:19;;;;;;;1.13;0.70;;;9.50;99.90;;;;;;5077324;28;20594;-44
2023/12/24 03:44:45;;;;;;;0.93;0.80;;;9.50;99.90;;;;;;5077109;28;20223;-44
2023/12/24 03:47:10;;;;;;;1.83;0.57;;;9.50;99.90;;;;;;5076892;28;20214;-43
2023/12/24 03:49:39;;;;;;;1.03;0.73;;;9.50;99.90;;;;;;5076709;28;20261;-41
2023/12/24 03:52:05;;;;;;;1.10;1.00;;;9.50;99.90;;;;;;5076851;28;20221;-42
2023/12/24 03:54:31;;;;;;;0.50;0.50;;;9.50;99.90;;;;;;5075886;28;20196;-44
2023/12/24 03:56:56;;;;;;;0.70;0.70;;;9.50;99.90;;;;;;5076762;28;20179;-45
2023/12/24 03:59:22;;;;;;;0.90;0.90;;;9.50;99.90;;;;;;5076835;28;20229;-43
2023/12/24 04:01:51;;;;;;;0.60;0.60;;;9.50;99.90;;;;;;5076662;28;20610;-42
2023/12/24 04:04:23;;;;;;;0.77;0.77;;;9.50;99.90;;;;;;5077068;28;20631;-42
2023/12/24 04:06:52;;;;;;;1.27;0.87;;;9.50;99.90;;;;;;5075794;28;20656;-44
2023/12/24 04:09:18;;;;;;;0.90;0.90;;;9.50;99.90;;;;;;5076300;28;20212;-45
2023/12/24 04:11:47;;;;;;;1.00;0.83;;;9.60;99.90;;;;;;5076474;28;20704;-43
2023/12/24 04:14:13;;;;;;;2.80;0.80;;;9.50;99.90;;;;;;5075766;28;20721;-43
2023/12/24 04:16:38;;;;;;;2.93;1.00;;;9.50;99.90;;;;;;5058395;28;20187;-43
2023/12/24 04:19:08;;;;;;;0.50;0.50;;;9.50;99.90;;;;;;5076536;28;20629;-44
2023/12/24 04:21:34;;;;;;;1.17;0.60;;;9.50;99.90;;;;;;5076139;28;20600;-43
2023/12/24 04:24:00;;;;;;;0.50;0.40;;;9.50;99.90;;;;;;5076211;28;20185;-43
2023/12/24 04:26:25;;;;;;;0.50;0.50;;;9.50;99.90;;;;;;5058621;28;20195;-44
2023/12/24 04:28:58;;;;;;;0.50;0.50;;;9.50;99.90;;;;;;5076232;28;20216;-43
2023/12/24 04:31:25;;;;;;;0.43;0.40;;;9.50;99.90;;;;;;5076154;28;20164;-43
2023/12/24 04:33:51;;;;;;;0.37;0.37;;;9.50;99.90;;;;;;5058207;28;20187;-42
2023/12/24 04:36:20;;;;;;;0.40;0.40;;;9.60;99.90;;;;;;5075395;28;20237;-42
2023/12/24 04:38:47;;;;;;;1.13;0.60;;;9.50;99.90;;;;;;5075935;28;20203;-42
2023/12/24 04:41:17;;;;;;;0.63;0.50;;;9.60;99.90;;;;;;5075772;28;20675;-43
2023/12/24 04:43:43;;;;;;;0.40;0.40;;;9.50;99.90;;;;;;5058268;28;20270;-43
2023/12/24 04:46:11;;;;;;;1.23;0.40;;;9.60;99.90;;;;;;5075972;28;20214;-44
2023/12/24 04:48:37;;;;;;;0.40;0.40;;;9.60;99.90;;;;;;5058168;28;20188;-44
2023/12/24 04:51:06;;;;;;;0.40;0.33;;;9.60;99.90;;;;;;5075643;28;20209;-42
2023/12/24 04:53:33;;;;;;;0.30;0.30;;;9.60;99.90;;;;;;5075741;28;20174;-42
2023/12/24 04:56:02;;;;;;;0.30;0.30;;;9.50;99.90;;;;;;5076514;28;20256;-44
2023/12/24 04:58:28;;;;;;;0.30;0.30;;;9.50;99.90;;;;;;5070530;28;20190;-43
2023/12/24 05:00:53;;;;;;;0.43;0.43;;;9.50;99.90;;;;;;5075785;28;20602;-42
2023/12/24 05:03:22;;;;;;;0.87;0.30;;;9.50;99.90;;;;;;5075805;28;20187;-42
2023/12/24 05:05:49;;;;;;;0.43;0.43;;;9.50;99.90;;;;;;5074402;28;20194;-44
2023/12/24 05:08:16;;;;;;;0.33;0.33;;;9.60;99.90;;;;;;5075848;28;20549;-43
2023/12/24 05:10:48;;;;;;;0.30;0.30;;;9.50;99.90;;;;;;5075196;28;20221;-45
2023/12/24 05:13:16;;;;;;;1.27;0.60;;;9.50;99.90;;;;;;5078560;28;20238;-42
2023/12/24 05:15:44;;;;;;;1.77;0.47;;;9.50;99.90;;;;;;5065568;28;20208;-44
2023/12/24 05:18:15;;;;;;;0.50;0.50;;;9.50;99.90;;;;;;5083565;28;20245;-42
2023/12/24 05:20:46;;;;;;;0.23;0.23;;;9.50;99.90;;;;;;5081643;28;20283;-45
2023/12/24 05:23:23;;;;;;;0.40;0.40;;;9.50;99.90;;;;;;5076708;28;20199;-44
2023/12/24 05:25:50;;;;;;;0.53;0.50;;;9.50;99.90;;;;;;5058615;28;20236;-43
2023/12/24 05:28:19;;;;;;;0.40;0.40;;;9.50;99.90;;;;;;5057655;28;20297;-45
2023/12/24 05:30:45;;;;;;;0.40;0.40;;;9.50;99.90;;;;;;5075424;28;20259;-44
2023/12/24 05:33:11;;;;;;;0.37;0.37;;;9.50;99.90;;;;;;5075430;28;20636;-44
2023/12/24 05:35:37;;;;;;;0.50;0.50;;;9.40;99.90;;;;;;5057676;28;20194;-44
2023/12/24 05:38:09;;;;;;;1.07;0.50;;;9.50;99.90;;;;;;5057602;28;20601;-45
2023/12/24 05:40:37;;;;;;;0.63;0.47;;;9.50;99.90;;;;;;5075278;28;20204;-44
2023/12/24 05:43:03;;;;;;;0.40;0.40;;;9.50;99.90;;;;;;5074934;28;20199;-42
2023/12/24 05:45:29;;;;;;;0.40;0.40;;;9.50;99.90;;;;;;5074570;28;20254;-43
2023/12/24 05:48:03;;;;;;;0.30;0.30;;;9.50;99.90;;;;;;5075029;28;20278;-43
2023/12/24 05:50:30;;;;;;;1.87;0.40;;;9.50;99.90;;;;;;5074972;28;20751;-42
2023/12/24 05:52:58;;;;;;;0.47;0.40;;;9.50;99.90;;;;;;5074797;28;20177;-44
2023/12/24 05:55:24;;;;;;;0.73;0.50;;;9.50;99.90;;;;;;5075201;28;20183;-44
2023/12/24 05:57:50;;;;;;;0.30;0.30;;;9.40;99.90;;;;;;5056960;28;20180;-43
2023/12/24 06:03:37;;;;;;;0.33;0.33;;;9.50;99.90;;;;;;5074480;28;20602;-44
2023/12/24 06:06:03;;;;;;;0.50;0.50;;;9.50;99.90;;;;;;5056661;28;20182;-44
2023/12/24 06:08:32;;;;;;;0.50;0.40;;;9.50;99.90;;;;;;5074569;28;20188;-41
2023/12/24 06:11:04;;;;;;;0.40;0.40;;;9.60;99.90;;;;;;5074472;28;20622;-43
2023/12/24 06:13:30;;;;;;;0.30;0.30;;;9.60;99.90;;;;;;5074353;28;20571;-43
2023/12/24 06:15:55;;;;;;;0.73;0.37;;;9.60;99.90;;;;;;5074404;28;20215;-43
2023/12/24 06:18:21;;;;;;;0.50;0.50;;;9.60;99.90;;;;;;5074122;28;20215;-44
2023/12/24 06:20:48;;;;;;;0.20;0.20;;;9.60;99.90;;;;;;5056308;28;20284;-44
2023/12/24 06:23:18;;;;;;;0.30;0.30;;;9.60;99.90;;;;;;5056671;28;20181;-43
2023/12/24 06:25:45;;;;;;;0.43;0.40;;;9.60;99.90;;;;;;5074199;28;20189;-43
2023/12/24 06:28:11;;;;;;;0.30;0.30;;;9.60;99.90;;;;;;5074206;28;20190;-42
2023/12/24 06:30:40;;;;;;;0.30;0.30;;;9.60;99.90;;;;;;5073947;28;20224;-42
2023/12/24 06:33:05;;;;;;;0.40;0.40;;;9.60;99.90;;;;;;5073825;28;20194;-44
2023/12/24 06:35:39;;;;;;;0.30;0.30;;;9.60;99.90;;;;;;5056354;28;20290;-45
2023/12/24 06:38:09;;;;;;;0.30;0.30;;;9.60;99.90;;;;;;5074075;28;20576;-43
2023/12/24 06:40:38;;;;;;;0.30;0.30;;;9.60;99.90;;;;;;5073972;28;20204;-44
2023/12/24 06:43:03;;;;;;;0.30;0.30;;;9.60;99.90;;;;;;5073583;28;20180;-45
2023/12/24 06:45:30;;;;;;;0.30;0.30;;;9.60;99.90;;;;;;5056166;28;20711;-44
2023/12/24 06:47:56;;;;;;;0.50;0.50;;;9.60;99.90;;;;;;5073746;28;20184;-43
2023/12/24 06:50:22;;;;;;;0.40;0.40;;;9.70;99.90;;;;;;5055719;28;20225;-43
2023/12/24 06:52:50;;;;;;;1.07;0.50;;;9.70;99.90;;;;;;5073722;28;20590;-43
2023/12/24 06:58:44;;;;;;;0.60;0.60;;;9.70;99.90;;;;;;5073535;28;20175;-44
2023/12/24 07:01:10;;;;;;;0.40;0.40;;;9.80;99.90;;;;;;5073652;28;20200;-45
2023/12/24 07:03:36;;;;;;;0.73;0.60;;;9.70;99.90;;;;;;5073612;28;20182;-43
2023/12/24 07:06:15;;;;;;;0.63;0.60;;;9.70;99.90;;;;;;5073384;28;20182;-44
2023/12/24 07:08:41;;;;;;;0.60;0.60;;;9.70;99.90;;;;;;5073530;28;20171;-42
2023/12/24 07:11:06;;;;;;;1.17;0.60;;;9.70;99.90;;;;;;5072546;28;20210;-42
2023/12/24 07:13:33;;;;;;;0.93;0.50;;;9.70;99.90;;;;;;5055492;28;20173;-45
2023/12/24 07:16:02;;;;;;;0.77;0.60;;;9.80;99.90;;;;;;5055522;28;20328;-44
2023/12/24 07:18:30;;;;;;;0.97;0.60;;;9.80;99.90;;;;;;5055910;28;20218;-42
2023/12/24 07:20:56;;;;;;;0.67;0.67;;;9.80;99.90;;;;;;5073424;28;20608;-43
2023/12/24 07:23:22;;;;;;;1.00;0.80;;;9.80;99.90;;;;;;5055513;28;20195;-44
2023/12/24 07:25:47;;;;;;;0.47;0.40;;;9.70;99.90;;;;;;5073194;28;20191;-44
2023/12/24 07:28:19;;;;;;;0.50;0.50;;;9.80;99.90;;;;;;5073372;28;20229;-45
2023/12/24 07:30:45;;;;;;;0.63;0.60;;;9.80;99.90;;;;;;5073042;28;20215;-44
2023/12/24 07:33:10;;;;;;;0.50;0.50;;;9.80;99.90;;;;;;5073449;28;20180;-43
2023/12/24 07:35:36;;;;;;;0.87;0.40;;;9.70;99.90;;;;;;5073042;28;20229;-44
2023/12/24 07:38:02;;;;;;;0.50;0.50;;;9.70;99.90;;;;;;5055204;28;20225;-45
2023/12/24 07:40:27;;;;;;;0.83;0.60;;;9.70;99.90;;;;;;5055373;28;20618;-45
2023/12/24 07:42:53;;;;;;;0.97;0.40;;;9.70;99.90;;;;;;5073090;28;20168;-43
2023/12/24 07:45:19;;;;;;;1.30;0.57;;;9.80;99.90;;;;;;5055623;28;20186;-43
2023/12/24 07:47:45;;;;;;;0.50;0.50;;;9.80;99.90;;;;;;5073330;28;20190;-44
2023/12/24 07:50:10;;;;;;;0.30;0.30;;;9.80;99.90;;;;;;5072825;28;20263;-45
2023/12/24 07:52:36;;;;;;;0.50;0.50;;;9.80;99.90;;;;;;5038699;28;20198;-45
2023/12/24 07:55:02;;;;;;;2.23;0.50;;;9.80;99.90;;;;;;5073302;28;20188;-45
2023/12/24 07:57:28;;;;;;;0.87;0.50;;;9.80;99.90;;;;;;5073407;28;20178;-43
2023/12/24 07:59:53;;;;;;;0.50;0.50;;;9.80;99.90;;;;;;5074086;28;20266;-45
2023/12/24 08:02:20;;;;;;;0.50;0.50;;;9.80;99.90;;;;;;5074025;28;20230;-44
2023/12/24 08:04:54;;;;;;;0.73;0.60;;;9.80;99.90;;;;;;5073916;28;20600;-46
2023/12/24 08:07:19;;;;;;;0.50;0.50;;;9.80;99.90;;;;;;5068947;28;20191;-47
2023/12/24 08:09:48;;;;;;;0.50;0.50;;;9.80;99.90;;;;;;5076357;28;20260;-47
2023/12/24 08:12:15;;;;;;;1.10;0.40;;;9.80;99.90;;;;;;5076379;28;20187;-47
2023/12/24 08:14:40;;;;;;;2.13;0.50;;;9.80;99.90;;;;;;5076680;28;20186;-48
2023/12/24 08:17:06;;;;;;;0.20;0.20;;;9.80;99.90;;;;;;5058442;28;20236;-48
2023/12/24 08:19:32;;;;;;;1.23;0.50;;;9.80;99.90;;;;;;5058414;28;20207;-47
2023/12/24 08:22:01;;;;;;;0.70;0.50;;;9.90;99.90;;;;;;5076235;28;20206;-47
2023/12/24 08:24:36;;;;;;;0.40;0.40;;;9.90;99.90;;;;;;5076732;28;20182;-48
2023/12/24 08:27:02;;;;;;;0.33;0.20;;;9.90;99.90;;;;;;5076462;28;20269;-48
2023/12/24 08:29:28;;;;;;;0.40;0.40;;;9.90;99.90;;;;;;5076274;28;20303;-47
2023/12/24 08:31:57;;;;;;;0.50;0.50;;;9.90;99.90;;;;;;5077394;28;20183;-47
2023/12/24 08:34:24;;;;;;;0.70;0.40;;;9.90;99.90;;;;;;5077950;28;20178;-47
2023/12/24 08:36:54;;;;;;;0.30;0.30;;;9.90;99.90;;;;;;5058936;28;20187;-47
2023/12/24 08:39:20;;;;;;;0.30;0.30;;;10.00;99.90;;;;;;5077020;28;20544;-48
2023/12/24 08:41:45;;;;;;;0.37;0.37;;;9.90;99.90;;;;;;5075981;28;20175;-48
2023/12/24 08:44:11;;;;;;;0.87;0.50;;;10.00;99.90;;;;;;5058033;28;20659;-49
2023/12/24 08:46:37;;;;;;;0.40;0.40;;;9.90;99.90;;;;;;5058318;28;20191;-48
2023/12/24 08:49:05;;;;;;;0.70;0.40;;;10.00;99.90;;;;;;5075988;28;20207;-48
2023/12/24 08:51:33;;;;;;;0.30;0.30;;;10.00;99.90;;;;;;5075245;28;20621;-46
2023/12/24 08:53:59;;;;;;;0.40;0.40;;;10.00;99.90;;;;;;5075985;28;20169;-46
2023/12/24 08:56:25;;;;;;;0.30;0.30;;;10.00;99.90;;;;;;5075925;28;20183;-48
2023/12/24 08:58:51;;;;;;;1.07;0.57;;;10.00;99.90;;;;;;5057828;28;20679;-46
2023/12/24 09:01:17;;;;;;;0.30;0.30;;;10.00;99.90;;;;;;5075152;28;20704;-46
2023/12/24 09:03:45;;;;;;;0.30;0.30;;;10.10;99.90;;;;;;5075933;28;20669;-48
2023/12/24 09:06:11;;;;;;;0.40;0.40;;;10.10;99.90;;;;;;5075796;28;20518;-48
2023/12/24 09:08:36;;;;;;;0.30;0.30;;;10.10;99.90;;;;;;5075604;28;20250;-46
2023/12/24 09:11:11;;;;;;;1.63;0.50;;;10.10;99.90;;;;;;5057835;28;20215;-47
2023/12/24 09:13:36;;;;;;;0.30;0.30;;;10.10;99.90;;;;;;5075619;28;20190;-48
2023/12/24 09:16:03;;;;;;;0.43;0.43;;;10.10;99.90;;;;;;5085502;28;20195;-47
2023/12/24 09:18:38;;;;;;;0.80;0.37;;;10.10;99.90;;;;;;5075418;28;20221;-48
2023/12/24 09:21:06;;;;;;;0.70;0.57;;;10.10;99.90;;;;;;5086238;28;20208;-47
2023/12/24 09:23:33;;;;;;;0.87;0.40;;;10.20;99.90;;;;;;5079603;28;20189;-47
2023/12/24 09:25:59;;;;;;;1.17;0.37;;;10.10;99.90;;;;;;5058764;28;20194;-46
2023/12/24 09:28:28;;;;;;;0.63;0.30;;;10.20;99.90;;;;;;5075818;28;20259;-48
2023/12/24 09:30:54;;;;;;;2.37;0.50;;;10.20;99.90;;;;;;5075645;28;20232;-47
2023/12/24 09:33:19;;;;;;;0.37;0.33;;;10.20;99.90;;;;;;5075644;28;20185;-48
2023/12/24 09:35:45;;;;;;;1.20;0.50;;;10.20;99.90;;;;;;5075478;28;20184;-49
2023/12/24 09:38:11;;;;;;;0.30;0.30;;;10.20;99.90;;;;;;5075232;28;20187;-47
2023/12/24 09:40:47;;;;;;;1.03;0.30;;;10.30;99.90;;;;;;5057479;28;20205;-47
2023/12/24 09:43:13;;;;;;;2.37;0.60;;;10.20;99.90;;;;;;5075095;28;20171;-49
2023/12/24 09:45:39;;;;;;;0.33;0.33;;;10.30;99.90;;;;;;5057071;28;20178;-47
2023/12/24 09:48:08;;;;;;;0.40;0.30;;;10.30;99.90;;;;;;5075348;28;20227;-47
2023/12/24 09:50:34;;;;;;;0.50;0.50;;;10.30;99.90;;;;;;5075008;28;20214;-46
2023/12/24 09:53:08;;;;;;;0.43;0.43;;;10.30;99.90;;;;;;5073789;28;20347;-46
2023/12/24 09:55:35;;;;;;;1.53;0.50;;;10.30;99.90;;;;;;5075139;28;20169;-47
2023/12/24 09:58:03;;;;;;;0.60;0.50;;;10.30;99.90;;;;;;5074631;28;20633;-47
2023/12/24 10:00:28;;;;;;;0.40;0.40;;;10.40;99.90;;;;;;5074845;28;20241;-46
2023/12/24 10:02:54;;;;;;;0.47;0.47;;;10.40;99.90;;;;;;5074768;28;20224;-47
2023/12/24 10:05:22;;;;;;;0.93;0.80;;;10.40;99.90;;;;;;5074615;28;20186;-47
2023/12/24 10:07:47;;;;;;;1.73;0.70;;;10.40;99.90;;;;;;5074373;28;20175;-47
2023/12/24 10:10:13;;;;;;;0.90;0.67;;;10.40;99.90;;;;;;5074487;28;20214;-48
2023/12/24 10:12:42;;;;;;;1.73;0.60;;;10.30;99.90;;;;;;5074349;28;20167;-48
2023/12/24 10:15:08;;;;;;;1.43;0.80;;;10.40;99.90;;;;;;5074446;28;20180;-47
2023/12/24 10:17:36;;;;;;;0.73;0.50;;;10.40;99.90;;;;;;5074602;28;20163;-46
2023/12/24 10:20:06;;;;;;;0.73;0.33;;;10.30;99.90;;;;;;5040312;28;20264;-46
2023/12/24 10:22:31;;;;;;;0.80;0.73;;;10.40;99.90;;;;;;5056395;28;20187;-48
2023/12/24 10:25:02;;;;;;;0.50;0.50;;;10.40;99.90;;;;;;5074381;28;20188;-46
2023/12/24 10:27:35;;;;;;;1.37;0.70;;;10.40;99.90;;;;;;5073726;28;20186;-48
2023/12/24 10:30:14;;;;;;;0.80;0.70;;;10.40;99.90;;;;;;5073936;28;20388;-48
2023/12/24 10:32:45;;;;;;;0.40;0.40;;;10.40;99.90;;;;;;5069411;28;20618;-47
2023/12/24 10:35:10;;;;;;;0.60;0.43;;;10.40;99.90;;;;;;5073310;28;20190;-48
2023/12/24 10:37:37;;;;;;;1.87;0.73;;;10.40;99.90;;;;;;5074035;28;20179;-48
2023/12/24 10:40:10;;;;;;;1.80;0.80;;;10.40;99.90;;;;;;5074202;28;20616;-48
2023/12/24 10:42:37;;;;;;;1.83;0.70;;;10.40;99.90;;;;;;5073964;28;20657;-49
2023/12/24 10:45:09;;;;;;;0.60;0.60;;;10.40;99.90;;;;;;5073730;28;20612;-47
2023/12/24 10:47:40;;;;;;;0.87;0.60;;;10.50;99.90;;;;;;5074358;28;20168;-47
2023/12/24 10:50:06;;;;;;;1.03;0.80;;;10.50;99.90;;;;;;5073526;28;20279;-47
2023/12/24 10:52:32;;;;;;;1.07;0.87;;;10.50;99.90;;;;;;5073926;28;20199;-48
2023/12/24 10:58:57;;;;;;;0.67;0.67;;;10.50;99.90;;;;;;5078072;28;20162;-47
2023/12/24 11:01:24;;;;;;;0.90;0.73;;;10.50;99.90;;;;;;5075084;28;20233;-47
2023/12/24 11:03:57;;;;;;;0.70;0.70;;;10.50;99.90;;;;;;5059336;28;20180;-47
2023/12/24 11:06:50;;;;;;;1.30;0.70;;;10.60;99.90;;;;;;5076758;28;20326;-46
2023/12/24 11:09:25;;;;;;;0.57;0.50;;;10.60;99.90;;;;;;5074945;28;20214;-46
2023/12/24 11:11:54;;;;;;;2.23;0.87;;;10.60;99.90;;;;;;5072082;28;20183;-47
2023/12/24 11:14:45;;;;;;;1.00;0.90;;;10.60;99.90;;;;;;5073243;28;20176;-48
2023/12/24 11:17:49;;;;;;;3.13;0.70;;;10.60;99.90;;;;;;5056815;28;20567;-47
2023/12/24 11:20:18;;;;;;;1.20;0.53;;;10.60;99.90;;;;;;5075585;28;20191;-46
2023/12/24 11:23:12;;;;;;;4.10;0.50;;;10.70;99.90;;;;;;5055538;28;20184;-46
2023/12/24 11:25:52;;;;;;;0.90;0.90;;;10.70;99.90;;;;;;5072461;28;20274;-49
2023/12/24 11:28:23;;;;;;;1.80;1.00;;;10.70;99.90;;;;;;5039133;28;20164;-46
2023/12/24 11:31:04;;;;;;;0.70;0.67;;;10.70;99.90;;;;;;5071173;28;20223;-49
2023/12/24 11:33:45;;;;;;;0.60;0.60;;;10.70;99.90;;;;;;5073127;28;20646;-46
2023/12/24 11:36:13;;;;;;;0.97;0.87;;;10.70;99.90;;;;;;5073152;28;20164;-47
2023/12/24 11:38:45;;;;;;;2.27;1.10;;;10.70;99.90;;;;;;5073140;28;20220;-47
2023/12/24 11:41:21;;;;;;;2.03;1.00;;;10.80;99.90;;;;;;5073443;28;20198;-47
2023/12/24 11:43:58;;;;;;;1.23;1.00;;;10.70;99.90;;;;;;5059291;28;20156;-47
2023/12/24 11:46:31;;;;;;;1.07;0.77;;;10.80;99.90;;;;;;5076666;28;20187;-49
2023/12/24 11:49:11;;;;;;;2.43;1.03;;;10.80;99.90;;;;;;5077144;28;20164;-47
2023/12/24 11:51:38;;;;;;;2.97;1.00;;;10.90;99.90;;;;;;5076113;28;20191;-48
2023/12/24 11:54:06;;;;;;;1.70;1.00;;;10.90;99.90;;;;;;5077527;28;20180;-47
2023/12/24 11:56:32;;;;;;;1.20;0.80;;;10.90;99.90;;;;;;5058834;28;20652;-49
2023/12/24 11:59:02;;;;;;;0.77;0.77;;;10.90;99.90;;;;;;5076562;28;20254;-47
2023/12/24 12:01:31;;;;;;;2.07;0.80;;;10.90;99.90;;;;;;5079050;28;20578;-47
2023/12/24 12:04:02;;;;;;;1.00;0.63;;;10.90;99.90;;;;;;5043206;28;20233;-48
2023/12/24 12:06:33;;;;;;;1.00;0.60;;;11.00;99.90;;;;;;5076990;28;20183;-48
2023/12/24 12:09:03;;;;;;;2.47;0.80;;;11.00;99.90;;;;;;5076367;28;20207;-49
2023/12/24 12:11:30;;;;;;;1.40;0.70;;;11.00;99.90;;;;;;5076925;28;20532;-46
2023/12/24 12:13:59;;;;;;;1.93;0.90;;;10.90;99.90;;;;;;5058862;28;20652;-48
2023/12/24 12:16:24;;;;;;;0.63;0.63;;;10.90;99.90;;;;;;5076461;28;20207;-50
2023/12/24 12:18:50;;;;;;;3.40;0.80;;;10.90;99.90;;;;;;5076548;28;20175;-48
2023/12/24 12:21:16;;;;;;;0.70;0.63;;;10.90;99.90;;;;;;5058911;28;20251;-50
2023/12/24 12:23:45;;;;;;;1.77;1.00;;;10.90;99.90;;;;;;5076509;28;20191;-48
2023/12/24 12:26:13;;;;;;;0.83;0.70;;;10.90;99.90;;;;;;5076285;28;20179;-48
2023/12/24 12:28:40;;;;;;;1.20;0.67;;;10.90;99.90;;;;;;5076362;28;20203;-48
2023/12/24 12:31:06;;;;;;;1.60;1.03;;;10.90;99.90;;;;;;5042374;28;20306;-47
2023/12/24 12:33:32;;;;;;;0.50;0.50;;;10.90;99.90;;;;;;5076538;28;20645;-48
2023/12/24 12:35:58;;;;;;;1.10;0.80;;;10.90;99.90;;;;;;5041789;28;20180;-49
2023/12/24 12:38:25;;;;;;;0.70;0.70;;;10.90;99.90;;;;;;5042053;28;20186;-47
2023/12/24 12:40:54;;;;;;;2.03;0.80;;;10.90;99.90;;;;;;5076140;28;20593;-49
2023/12/24 12:43:20;;;;;;;1.83;0.57;;;10.90;99.90;;;;;;5076027;28;20275;-48
2023/12/24 12:45:46;;;;;;;2.10;1.17;;;10.90;99.90;;;;;;5076186;28;20198;-48
2023/12/24 12:48:12;;;;;;;1.37;0.70;;;10.80;99.90;;;;;;5075963;28;20171;-51
2023/12/24 12:50:38;;;;;;;0.67;0.60;;;10.80;99.90;;;;;;5075576;28;20277;-48
2023/12/24 12:53:05;;;;;;;0.70;0.70;;;10.90;99.90;;;;;;5075324;28;20180;-48
2023/12/24 12:55:31;;;;;;;0.80;0.60;;;10.80;99.90;;;;;;5057154;28;20210;-48
2023/12/24 12:58:10;;;;;;;0.77;0.40;;;10.80;99.90;;;;;;5057711;28;20203;-50
2023/12/24 13:00:38;;;;;;;0.57;0.40;;;10.80;99.90;;;;;;5057872;28;20210;-48
2023/12/24 13:03:12;;;;;;;0.97;0.60;;;10.80;99.90;;;;;;5058215;28;20192;-48
2023/12/24 13:05:48;;;;;;;0.40;0.40;;;10.80;99.90;;;;;;5075859;28;20505;-48
2023/12/24 13:08:20;;;;;;;2.73;0.60;;;10.80;99.90;;;;;;5057968;28;20187;-51
2023/12/24 13:10:46;;;;;;;0.70;0.70;;;10.80;99.90;;;;;;5075477;28;20210;-48
2023/12/24 13:13:32;;;;;;;1.73;0.70;;;10.90;99.90;;;;;;5075502;28;20258;-49
2023/12/24 13:16:11;;;;;;;1.03;0.77;;;10.90;99.90;;;;;;5079333;28;20160;-48